Time;durP1;ratioP1;P1;durP2;ratioP2;P2;SDS_P1;SDS_P2;PMS_P1;PMS_P2;Temp;Humidity;BMP_temperature;BMP_pressure;BME280_temperature;BME280_humidity;BME280_pressure;Samples;Min_cycle;Max_cycle;Signal;HPM_P1;HPM_P2
2022/06/26 00:00:20;;;;;;;13.47;12.57;;;;;;;;;;4972891;28;20434;-92
2022/06/26 00:02:46;;;;;;;12.87;11.87;;;;;;;;;;4989995;28;20437;-92
2022/06/26 00:05:13;;;;;;;12.43;11.73;;;;;;;;;;4978646;28;20433;-93
2022/06/26 00:07:39;;;;;;;14.10;13.10;;;;;;;;;;4984504;28;20450;-92
2022/06/26 00:10:06;;;;;;;14.23;13.20;;;;;;;;;;4995660;28;20481;-94
2022/06/26 00:12:32;;;;;;;13.90;12.90;;;;;;;;;;4993357;28;20430;-92
2022/06/26 00:14:58;;;;;;;14.80;13.80;;;;;;;;;;4976331;28;20442;-92
2022/06/26 00:17:24;;;;;;;14.27;13.27;;;;;;;;;;4975481;28;20438;-92
2022/06/26 00:19:50;;;;;;;13.67;12.33;;;;;;;;;;4970247;28;20524;-92
2022/06/26 00:22:17;;;;;;;14.27;13.17;;;;;;;;;;4949372;29;20561;-91
2022/06/26 00:24:46;;;;;;;12.00;11.20;;;;;;;;;;4980223;28;20418;-91
2022/06/26 00:27:12;;;;;;;11.73;10.83;;;;;;;;;;4980520;28;20902;-92
2022/06/26 00:29:38;;;;;;;13.07;11.90;;;;;;;;;;4962297;28;20433;-92
2022/06/26 00:32:06;;;;;;;12.33;11.60;;;;;;;;;;4978978;28;20468;-92
2022/06/26 00:34:33;;;;;;;14.93;13.77;;;;;;;;;;4961999;28;20446;-92
2022/06/26 00:36:59;;;;;;;14.27;13.00;;;;;;;;;;4958964;28;20449;-91
2022/06/26 00:39:25;;;;;;;13.00;12.10;;;;;;;;;;4975564;28;20437;-92
2022/06/26 00:41:54;;;;;;;13.20;12.30;;;;;;;;;;4963143;28;20430;-94
2022/06/26 00:44:21;;;;;;;14.40;13.10;;;;;;;;;;4977127;28;20938;-92
2022/06/26 00:46:47;;;;;;;12.67;11.87;;;;;;;;;;4943645;28;20454;-92
2022/06/26 00:49:13;;;;;;;13.87;12.87;;;;;;;;;;4963747;28;20845;-92
2022/06/26 00:51:41;;;;;;;13.77;12.87;;;;;;;;;;4987948;28;20481;-92
2022/06/26 00:54:08;;;;;;;12.43;11.47;;;;;;;;;;4970564;28;20712;-93
2022/06/26 00:56:37;;;;;;;12.87;11.77;;;;;;;;;;4980501;28;20426;-94
2022/06/26 00:59:03;;;;;;;11.60;10.50;;;;;;;;;;4961806;28;20434;-93
2022/06/26 01:01:30;;;;;;;12.80;11.77;;;;;;;;;;4976003;28;20488;-93
2022/06/26 01:03:56;;;;;;;12.20;11.30;;;;;;;;;;4978201;28;20437;-93
2022/06/26 01:06:22;;;;;;;11.37;10.57;;;;;;;;;;4965169;28;21035;-92
2022/06/26 01:08:48;;;;;;;11.87;10.97;;;;;;;;;;4976302;28;20927;-93
2022/06/26 01:11:20;;;;;;;11.70;11.00;;;;;;;;;;4957659;28;20493;-94
2022/06/26 01:13:51;;;;;;;11.87;11.10;;;;;;;;;;4956246;29;20402;-93
2022/06/26 01:16:20;;;;;;;13.00;11.90;;;;;;;;;;4983328;28;20432;-93
2022/06/26 01:18:49;;;;;;;13.03;12.23;;;;;;;;;;4959571;29;20434;-94
2022/06/26 01:21:16;;;;;;;12.30;11.47;;;;;;;;;;4965488;28;20469;-93
2022/06/26 01:23:42;;;;;;;11.93;11.10;;;;;;;;;;4959793;28;20810;-96
2022/06/26 01:26:11;;;;;;;12.00;11.20;;;;;;;;;;4982210;28;20436;-92
2022/06/26 01:28:40;;;;;;;12.53;11.70;;;;;;;;;;4982522;28;20416;-95
2022/06/26 01:31:06;;;;;;;11.57;10.73;;;;;;;;;;4954776;28;20477;-95
2022/06/26 01:33:33;;;;;;;12.63;11.63;;;;;;;;;;4977037;28;20964;-91
2022/06/26 01:35:59;;;;;;;12.67;11.70;;;;;;;;;;4970288;28;20437;-92
2022/06/26 01:38:28;;;;;;;13.80;12.50;;;;;;;;;;4955118;28;20421;-92
2022/06/26 01:40:55;;;;;;;12.80;11.90;;;;;;;;;;4964199;28;20434;-92
2022/06/26 01:43:22;;;;;;;12.47;11.70;;;;;;;;;;4948055;29;20459;-91
2022/06/26 01:45:49;;;;;;;13.87;12.70;;;;;;;;;;4956547;28;20434;-91
2022/06/26 01:48:15;;;;;;;14.93;13.77;;;;;;;;;;4940521;29;20419;-91
2022/06/26 01:50:42;;;;;;;15.13;13.83;;;;;;;;;;4953606;28;20469;-91
2022/06/26 01:53:08;;;;;;;13.50;12.43;;;;;;;;;;4957952;28;20410;-91
2022/06/26 01:55:34;;;;;;;14.20;13.20;;;;;;;;;;4968897;28;20437;-91
2022/06/26 01:58:01;;;;;;;12.67;11.80;;;;;;;;;;4952174;28;20422;-91
2022/06/26 02:00:28;;;;;;;11.53;10.70;;;;;;;;;;4953075;28;21031;-92
2022/06/26 02:02:54;;;;;;;11.30;10.60;;;;;;;;;;4940141;28;20439;-92
2022/06/26 02:05:20;;;;;;;13.63;12.23;;;;;;;;;;4960173;28;21127;-91
2022/06/26 02:07:46;;;;;;;12.80;11.90;;;;;;;;;;4951012;28;20656;-90
2022/06/26 02:15:41;;;;;;;11.53;10.63;;;;;;;;;;4937503;28;20997;-92
2022/06/26 02:18:07;;;;;;;11.83;10.83;;;;;;;;;;4955662;29;20430;-91
2022/06/26 02:20:34;;;;;;;10.60;9.90;;;;;;;;;;4957407;28;20437;-90
2022/06/26 02:23:00;;;;;;;10.97;10.37;;;;;;;;;;4956543;28;20466;-92
2022/06/26 02:25:26;;;;;;;11.67;10.90;;;;;;;;;;4962445;28;20424;-92
2022/06/26 02:27:52;;;;;;;11.00;10.30;;;;;;;;;;4953263;28;20581;-91
2022/06/26 02:30:18;;;;;;;11.73;10.83;;;;;;;;;;4972969;28;20433;-90
2022/06/26 02:32:47;;;;;;;11.67;10.97;;;;;;;;;;4954425;28;20445;-92
2022/06/26 02:35:13;;;;;;;11.60;10.73;;;;;;;;;;4957793;28;20442;-92
2022/06/26 02:37:39;;;;;;;11.83;10.93;;;;;;;;;;4954122;28;20497;-91
2022/06/26 02:40:05;;;;;;;11.77;11.00;;;;;;;;;;4954219;28;20441;-91
2022/06/26 02:42:32;;;;;;;13.20;12.33;;;;;;;;;;4950820;28;20438;-91
2022/06/26 02:44:58;;;;;;;12.47;11.70;;;;;;;;;;4970429;28;21063;-90
2022/06/26 02:47:24;;;;;;;12.63;11.77;;;;;;;;;;4957817;28;20438;-91
2022/06/26 02:49:50;;;;;;;13.37;12.37;;;;;;;;;;4979129;28;20440;-91
2022/06/26 02:52:16;;;;;;;13.00;12.30;;;;;;;;;;4960603;28;20500;-91
2022/06/26 02:54:42;;;;;;;13.80;12.70;;;;;;;;;;4974250;28;20766;-92
2022/06/26 02:57:08;;;;;;;12.30;11.50;;;;;;;;;;4960097;28;20445;-91
2022/06/26 02:59:34;;;;;;;13.43;12.50;;;;;;;;;;4973479;28;20430;-91
2022/06/26 03:02:00;;;;;;;13.60;12.50;;;;;;;;;;4955932;28;20447;-91
2022/06/26 03:04:27;;;;;;;13.73;12.83;;;;;;;;;;4965719;28;20908;-91
2022/06/26 03:06:53;;;;;;;14.33;13.27;;;;;;;;;;4959683;28;20786;-89
2022/06/26 03:09:18;;;;;;;14.40;13.30;;;;;;;;;;4962117;28;20555;-90
2022/06/26 03:11:44;;;;;;;13.50;12.53;;;;;;;;;;4963103;28;20490;-91
2022/06/26 03:14:10;;;;;;;14.47;13.30;;;;;;;;;;4969848;28;20430;-90
2022/06/26 03:16:36;;;;;;;13.43;12.37;;;;;;;;;;4961219;28;20454;-91
2022/06/26 03:19:03;;;;;;;15.03;13.83;;;;;;;;;;4954864;28;20429;-90
2022/06/26 03:21:29;;;;;;;14.23;12.93;;;;;;;;;;4941427;28;20457;-91
2022/06/26 03:24:01;;;;;;;16.23;14.93;;;;;;;;;;4952667;28;20453;-89
2022/06/26 03:26:27;;;;;;;15.27;14.13;;;;;;;;;;4949448;29;20554;-90
2022/06/26 03:28:53;;;;;;;14.20;13.00;;;;;;;;;;4954733;29;20407;-88
2022/06/26 03:31:19;;;;;;;15.57;14.23;;;;;;;;;;4964648;28;20520;-90
2022/06/26 03:33:45;;;;;;;15.03;13.60;;;;;;;;;;4944072;29;20914;-91
2022/06/26 03:36:11;;;;;;;14.93;13.87;;;;;;;;;;4959623;28;20440;-91
2022/06/26 03:38:38;;;;;;;14.40;13.50;;;;;;;;;;4970265;28;20418;-90
2022/06/26 03:41:04;;;;;;;16.73;15.40;;;;;;;;;;4961807;28;20426;-89
2022/06/26 03:43:30;;;;;;;17.93;16.40;;;;;;;;;;4969613;28;20450;-90
2022/06/26 03:45:56;;;;;;;16.00;14.80;;;;;;;;;;4966283;28;20464;-90
2022/06/26 03:48:22;;;;;;;16.43;14.83;;;;;;;;;;4965460;28;20472;-90
2022/06/26 03:57:23;;;;;;;16.03;14.83;;;;;;;;;;4935445;29;20470;-90
2022/06/26 03:59:49;;;;;;;15.80;14.20;;;;;;;;;;4956302;28;20441;-91
2022/06/26 04:02:15;;;;;;;16.00;14.53;;;;;;;;;;4960344;28;20446;-92
2022/06/26 04:05:05;;;;;;;16.43;15.23;;;;;;;;;;4960553;28;20466;-90
2022/06/26 04:10:33;;;;;;;14.23;12.93;;;;;;;;;;4967778;28;20448;-91
2022/06/26 04:13:49;;;;;;;14.80;13.43;;;;;;;;;;4978382;28;20437;-90
2022/06/26 04:16:16;;;;;;;14.40;13.20;;;;;;;;;;4960535;28;20431;-92
2022/06/26 04:18:42;;;;;;;14.80;13.80;;;;;;;;;;4972194;28;20466;-91
2022/06/26 04:21:08;;;;;;;13.53;12.40;;;;;;;;;;4980743;28;20447;-90
2022/06/26 04:23:34;;;;;;;14.33;13.10;;;;;;;;;;4984347;28;20457;-90
2022/06/26 04:26:00;;;;;;;13.50;12.30;;;;;;;;;;4990588;28;21319;-90
2022/06/26 04:28:26;;;;;;;12.37;11.47;;;;;;;;;;4973680;28;20496;-91
2022/06/26 04:30:52;;;;;;;12.57;11.57;;;;;;;;;;5001698;28;21048;-91
2022/06/26 04:33:18;;;;;;;11.00;10.00;;;;;;;;;;4974703;28;20441;-89
2022/06/26 04:35:44;;;;;;;12.73;11.40;;;;;;;;;;4985660;28;20436;-89
2022/06/26 04:38:10;;;;;;;11.10;10.13;;;;;;;;;;4964224;28;20520;-90
2022/06/26 04:40:36;;;;;;;46.72;10.20;;;;;;;;;;4287381;28;10022579;-90
2022/06/26 04:43:02;;;;;;;10.00;9.30;;;;;;;;;;4975377;28;20193;-88
2022/06/26 04:45:28;;;;;;;11.27;10.37;;;;;;;;;;4973431;28;20973;-90
2022/06/26 04:47:54;;;;;;;11.07;10.20;;;;;;;;;;4973533;28;20556;-89
2022/06/26 04:50:22;;;;;;;10.60;10.00;;;;;;;;;;4991904;28;21096;-92
2022/06/26 04:52:52;;;;;;;10.10;9.50;;;;;;;;;;4962199;28;20483;-90
2022/06/26 04:55:18;;;;;;;10.30;9.43;;;;;;;;;;4974918;28;20946;-91
2022/06/26 04:57:44;;;;;;;10.20;9.50;;;;;;;;;;4989467;28;20479;-91
2022/06/26 05:00:14;;;;;;;10.90;9.90;;;;;;;;;;4979342;28;20523;-89
2022/06/26 05:03:02;;;;;;;10.40;9.40;;;;;;;;;;4986963;28;20445;-91
2022/06/26 05:05:28;;;;;;;9.93;9.27;;;;;;;;;;4986717;28;20428;-90
2022/06/26 05:07:54;;;;;;;9.37;8.77;;;;;;;;;;4966696;28;20462;-90
2022/06/26 05:10:20;;;;;;;9.63;9.10;;;;;;;;;;4975673;28;20927;-90
2022/06/26 05:12:47;;;;;;;9.20;8.60;;;;;;;;;;4971655;28;20459;-89
2022/06/26 05:15:13;;;;;;;8.67;8.03;;;;;;;;;;4975401;28;20444;-89
2022/06/26 05:17:39;;;;;;;9.10;8.40;;;;;;;;;;4978887;28;20424;-90
2022/06/26 05:20:05;;;;;;;7.70;7.30;;;;;;;;;;4973272;28;20451;-89
2022/06/26 05:22:31;;;;;;;8.30;7.90;;;;;;;;;;4974366;28;20480;-94
2022/06/26 05:24:57;;;;;;;7.70;7.17;;;;;;;;;;4996753;28;20518;-93
2022/06/26 05:27:23;;;;;;;7.63;7.20;;;;;;;;;;4982176;28;20455;-92
2022/06/26 05:29:50;;;;;;;7.90;7.60;;;;;;;;;;4981584;28;20425;-93
2022/06/26 05:32:16;;;;;;;8.23;7.37;;;;;;;;;;5008905;28;20471;-94
2022/06/26 05:34:51;;;;;;;7.33;7.03;;;;;;;;;;5008131;28;20492;-92
2022/06/26 05:37:17;;;;;;;7.97;7.50;;;;;;;;;;5005460;28;20456;-93
2022/06/26 05:39:43;;;;;;;6.80;6.40;;;;;;;;;;4995901;28;20456;-93
2022/06/26 05:42:20;;;;;;;;;;;;;;;;;;;;;
2022/06/26 05:44:46;;;;;;;6.90;6.50;;;;;;;;;;4998593;28;20495;-93
2022/06/26 05:47:12;;;;;;;6.27;6.03;;;;;;;;;;5010842;28;20434;-92
2022/06/26 05:49:38;;;;;;;7.70;6.77;;;;;;;;;;5014695;28;20442;-94
2022/06/26 05:52:07;;;;;;;6.37;5.70;;;;;;;;;;4994775;28;20972;-94
2022/06/26 05:54:33;;;;;;;5.97;5.70;;;;;;;;;;5014082;28;20516;-93
2022/06/26 05:56:59;;;;;;;5.90;5.70;;;;;;;;;;5026984;28;20451;-94
2022/06/26 05:59:25;;;;;;;6.07;5.77;;;;;;;;;;5016632;28;20416;-93
2022/06/26 06:01:54;;;;;;;6.33;6.03;;;;;;;;;;4996991;28;20478;-93
2022/06/26 06:04:22;;;;;;;4.67;4.20;;;;;;;;;;4994094;28;20427;-93
2022/06/26 06:06:48;;;;;;;4.00;3.73;;;;;;;;;;5014435;28;20428;-93
2022/06/26 06:09:14;;;;;;;4.03;3.90;;;;;;;;;;5013835;28;20427;-93
2022/06/26 06:11:43;;;;;;;4.00;3.43;;;;;;;;;;4990425;28;20798;-93
2022/06/26 06:14:09;;;;;;;4.77;4.57;;;;;;;;;;4978547;28;20426;-93
2022/06/26 06:16:35;;;;;;;4.30;4.03;;;;;;;;;;4990225;28;20440;-93
2022/06/26 06:19:04;;;;;;;6.27;6.07;;;;;;;;;;4974368;28;20430;-92
2022/06/26 06:21:31;;;;;;;7.63;7.13;;;;;;;;;;4971799;28;20589;-93
2022/06/26 06:23:57;;;;;;;7.93;7.37;;;;;;;;;;4979749;28;20425;-93
2022/06/26 06:26:25;;;;;;;8.20;7.80;;;;;;;;;;4988920;28;20445;-91
2022/06/26 06:28:51;;;;;;;8.63;8.03;;;;;;;;;;4970818;28;20414;-92
2022/06/26 06:31:34;;;;;;;;;;;;;;;;;;;;;
2022/06/26 06:34:00;;;;;;;8.03;7.33;;;;;;;;;;4961900;28;20446;-90
2022/06/26 06:36:27;;;;;;;9.03;8.40;;;;;;;;;;4990740;28;20421;-89
2022/06/26 06:38:53;;;;;;;6.43;6.13;;;;;;;;;;4960723;28;20407;-92
2022/06/26 06:41:22;;;;;;;7.37;6.87;;;;;;;;;;4969037;28;20428;-92
2022/06/26 06:43:48;;;;;;;7.27;6.27;;;;;;;;;;4964592;28;20446;-93
2022/06/26 06:46:34;;;;;;;6.83;6.20;;;;;;;;;;4989827;28;20501;-91
2022/06/26 06:49:02;;;;;;;8.97;6.70;;;;;;;;;;4965765;29;20895;-93
2022/06/26 06:51:28;;;;;;;7.30;6.80;;;;;;;;;;4981524;28;20457;-95
2022/06/26 06:53:54;;;;;;;8.40;7.90;;;;;;;;;;4971354;28;20446;-93
2022/06/26 06:56:20;;;;;;;6.87;6.47;;;;;;;;;;4607945;28;10000587;-93
2022/06/26 06:58:46;;;;;;;5.53;5.20;;;;;;;;;;4951289;28;20661;-92
2022/06/26 07:01:15;;;;;;;5.50;5.30;;;;;;;;;;4966282;28;20423;-93
2022/06/26 07:03:41;;;;;;;6.50;6.10;;;;;;;;;;4994979;28;20436;-92
2022/06/26 07:06:09;;;;;;;6.27;5.97;;;;;;;;;;4994979;28;20417;-93
2022/06/26 07:08:35;;;;;;;6.90;6.40;;;;;;;;;;4970269;28;20430;-91
2022/06/26 07:11:08;;;;;;;6.73;6.50;;;;;;;;;;4984112;28;20482;-93
2022/06/26 07:13:34;;;;;;;7.17;6.87;;;;;;;;;;4971436;28;20430;-92
2022/06/26 07:16:01;;;;;;;7.10;6.80;;;;;;;;;;4961277;28;20419;-93
2022/06/26 07:18:28;;;;;;;6.43;6.10;;;;;;;;;;4956287;28;20446;-91
2022/06/26 07:20:54;;;;;;;7.30;6.80;;;;;;;;;;4960290;28;20515;-91
2022/06/26 07:23:20;;;;;;;6.57;6.17;;;;;;;;;;4972873;28;20426;-94
2022/06/26 07:25:47;;;;;;;5.77;5.40;;;;;;;;;;4950367;29;20419;-91
2022/06/26 07:28:13;;;;;;;5.73;5.43;;;;;;;;;;4948177;28;20439;-89
2022/06/26 07:30:39;;;;;;;5.87;5.57;;;;;;;;;;4945568;28;20450;-89
2022/06/26 07:34:12;;;;;;;6.07;5.67;;;;;;;;;;4949743;28;20465;-89
2022/06/26 07:35:54;;;;;;;6.80;6.33;;;;;;;;;;4956745;28;20430;-89
2022/06/26 07:38:20;;;;;;;5.93;5.60;;;;;;;;;;4953976;28;20446;-89
2022/06/26 07:40:46;;;;;;;5.77;5.47;;;;;;;;;;4953007;28;20449;-90
2022/06/26 07:43:12;;;;;;;6.30;6.07;;;;;;;;;;4950079;28;20538;-88
2022/06/26 07:45:38;;;;;;;5.87;5.67;;;;;;;;;;4951791;28;20439;-86
2022/06/26 07:48:04;;;;;;;5.43;5.17;;;;;;;;;;4946474;28;20455;-88
2022/06/26 07:50:30;;;;;;;5.43;5.23;;;;;;;;;;4946549;28;20948;-88
2022/06/26 07:52:57;;;;;;;6.10;5.60;;;;;;;;;;4603263;28;10000066;-90
2022/06/26 07:55:23;;;;;;;4.70;4.50;;;;;;;;;;4951164;28;20190;-89
2022/06/26 07:57:49;;;;;;;4.50;4.30;;;;;;;;;;4946677;28;20435;-88
2022/06/26 08:00:15;;;;;;;3.87;3.77;;;;;;;;;;4943937;28;20439;-89
2022/06/26 08:02:44;;;;;;;3.93;3.67;;;;;;;;;;4946408;28;20456;-89
2022/06/26 08:05:11;;;;;;;3.07;2.87;;;;;;;;;;4948351;28;20442;-90
2022/06/26 08:07:37;;;;;;;9.00;3.10;;;;;;;;;;4950924;28;20446;-89
2022/06/26 08:10:03;;;;;;;2.43;2.30;;;;;;;;;;4945449;28;20941;-90
2022/06/26 08:12:29;;;;;;;2.60;2.50;;;;;;;;;;4964686;28;20469;-90
2022/06/26 08:14:55;;;;;;;2.33;2.23;;;;;;;;;;4973156;28;20531;-91
2022/06/26 08:17:21;;;;;;;2.50;2.30;;;;;;;;;;4967266;28;20909;-90
2022/06/26 08:19:48;;;;;;;2.10;2.07;;;;;;;;;;4966222;28;20515;-90
2022/06/26 08:22:15;;;;;;;1.80;1.80;;;;;;;;;;4967489;28;20962;-90
2022/06/26 08:24:44;;;;;;;1.57;1.57;;;;;;;;;;4981865;28;20410;-90
2022/06/26 08:27:10;;;;;;;1.40;1.40;;;;;;;;;;4967868;28;20977;-91
2022/06/26 08:29:37;;;;;;;1.33;1.33;;;;;;;;;;4965970;28;20433;-89
2022/06/26 08:32:04;;;;;;;2.07;1.97;;;;;;;;;;4965434;28;21255;-89
2022/06/26 08:34:30;;;;;;;2.30;1.60;;;;;;;;;;4971871;28;20467;-89
2022/06/26 08:36:58;;;;;;;1.60;1.60;;;;;;;;;;4968790;28;20635;-88
2022/06/26 08:39:25;;;;;;;1.40;1.40;;;;;;;;;;4969540;28;21454;-89
2022/06/26 08:41:54;;;;;;;1.57;1.53;;;;;;;;;;4969835;28;20532;-89
2022/06/26 08:44:22;;;;;;;1.73;1.60;;;;;;;;;;4993835;28;20581;-88
2022/06/26 08:46:48;;;;;;;1.70;1.57;;;;;;;;;;5008120;28;20428;-90
2022/06/26 08:49:15;;;;;;;1.77;1.73;;;;;;;;;;4987679;28;20448;-90
2022/06/26 08:51:54;;;;;;;1.90;1.83;;;;;;;;;;4987005;28;20476;-90
2022/06/26 08:54:20;;;;;;;1.80;1.80;;;;;;;;;;4966028;28;20432;-90
2022/06/26 08:56:48;;;;;;;2.27;2.27;;;;;;;;;;4972141;28;20773;-90
2022/06/26 08:59:15;;;;;;;1.90;1.90;;;;;;;;;;4969878;28;20444;-89
2022/06/26 09:01:42;;;;;;;2.40;2.30;;;;;;;;;;4974741;28;20444;-89
2022/06/26 09:04:08;;;;;;;2.27;2.20;;;;;;;;;;4960553;28;20444;-90
2022/06/26 09:06:35;;;;;;;2.17;2.17;;;;;;;;;;4976665;28;21008;-90
2022/06/26 09:09:12;;;;;;;1.97;1.90;;;;;;;;;;4980886;28;20448;-90
2022/06/26 09:11:39;;;;;;;1.90;1.90;;;;;;;;;;4969694;28;20775;-89
2022/06/26 09:14:05;;;;;;;2.60;2.50;;;;;;;;;;4949047;28;20593;-89
2022/06/26 09:16:32;;;;;;;1.80;1.80;;;;;;;;;;4947453;28;20862;-90
2022/06/26 09:19:11;;;;;;;2.27;2.20;;;;;;;;;;4941065;28;20818;-84
2022/06/26 09:21:37;;;;;;;1.93;1.93;;;;;;;;;;4968575;28;20450;-89
2022/06/26 09:24:03;;;;;;;1.93;1.80;;;;;;;;;;4953046;28;20481;-88
2022/06/26 09:26:29;;;;;;;2.33;2.33;;;;;;;;;;4951513;28;20490;-87
2022/06/26 09:28:55;;;;;;;2.13;2.10;;;;;;;;;;4941397;28;20616;-89
2022/06/26 09:31:22;;;;;;;1.67;1.67;;;;;;;;;;4951050;28;21016;-89
2022/06/26 09:33:48;;;;;;;2.20;2.10;;;;;;;;;;4946618;28;20541;-89
2022/06/26 09:36:15;;;;;;;1.70;1.70;;;;;;;;;;4947845;28;20450;-88
2022/06/26 09:38:48;;;;;;;2.07;1.97;;;;;;;;;;4946889;28;20803;-89
2022/06/26 09:41:14;;;;;;;2.00;1.80;;;;;;;;;;4947764;29;20442;-88
2022/06/26 09:43:44;;;;;;;1.70;1.60;;;;;;;;;;4956301;28;20449;-87
2022/06/26 09:46:11;;;;;;;2.27;2.07;;;;;;;;;;4969961;28;20986;-90
2022/06/26 09:48:38;;;;;;;2.87;2.77;;;;;;;;;;4963466;28;20454;-88
2022/06/26 09:51:08;;;;;;;1.90;1.90;;;;;;;;;;4969156;28;20558;-89
2022/06/26 09:53:34;;;;;;;2.20;1.93;;;;;;;;;;4961494;28;20448;-89
2022/06/26 09:56:01;;;;;;;1.47;1.47;;;;;;;;;;4963668;28;20544;-89
2022/06/26 09:58:28;;;;;;;2.33;2.23;;;;;;;;;;4954939;28;20475;-89
2022/06/26 10:06:25;;;;;;;1.37;1.37;;;;;;;;;;4955417;28;20457;-88
2022/06/26 10:08:52;;;;;;;1.43;1.43;;;;;;;;;;4608129;28;10000083;-89
2022/06/26 10:11:19;;;;;;;1.60;1.60;;;;;;;;;;4960355;28;20302;-89
2022/06/26 10:13:45;;;;;;;2.07;1.97;;;;;;;;;;4948607;28;21215;-89
2022/06/26 10:16:14;;;;;;;1.80;1.80;;;;;;;;;;4950251;28;20430;-89
2022/06/26 10:18:40;;;;;;;1.40;1.40;;;;;;;;;;4947741;28;20446;-89
2022/06/26 10:21:09;;;;;;;1.27;1.27;;;;;;;;;;4950639;28;20582;-89
2022/06/26 10:23:42;;;;;;;3.20;3.00;;;;;;;;;;4959140;28;20441;-89
2022/06/26 10:26:15;;;;;;;1.80;1.80;;;;;;;;;;4949009;29;20493;-89
2022/06/26 10:28:57;;;;;;;4.20;4.10;;;;;;;;;;4955171;28;20477;-89
2022/06/26 10:31:23;;;;;;;1.90;1.80;;;;;;;;;;4950330;28;20520;-87
2022/06/26 10:33:50;;;;;;;1.67;1.67;;;;;;;;;;4953874;28;20435;-88
2022/06/26 10:36:25;;;;;;;2.67;2.50;;;;;;;;;;4973700;28;20421;-89
2022/06/26 10:39:03;;;;;;;1.93;1.93;;;;;;;;;;4956698;28;20470;-88
2022/06/26 10:44:28;;;;;;;1.83;1.83;;;;;;;;;;4966591;28;20627;-92
2022/06/26 10:46:58;;;;;;;2.40;2.30;;;;;;;;;;4943806;29;20823;-89
2022/06/26 10:49:24;;;;;;;2.10;2.00;;;;;;;;;;4959807;28;20459;-90
2022/06/26 10:51:50;;;;;;;2.10;1.90;;;;;;;;;;4978081;28;20839;-87
2022/06/26 10:54:22;;;;;;;2.33;2.00;;;;;;;;;;4977365;28;20935;-89
2022/06/26 10:56:55;;;;;;;2.40;2.20;;;;;;;;;;4961988;28;20437;-89
2022/06/26 10:59:25;;;;;;;5.97;1.80;;;;;;;;;;4951463;29;20460;-86
2022/06/26 11:01:51;;;;;;;2.10;2.10;;;;;;;;;;4982411;28;21014;-88
2022/06/26 11:04:18;;;;;;;1.80;1.80;;;;;;;;;;4949418;29;20443;-89
2022/06/26 11:06:51;;;;;;;2.37;2.17;;;;;;;;;;4967486;28;20442;-89
2022/06/26 11:09:17;;;;;;;2.20;2.20;;;;;;;;;;4998043;28;20441;-90
2022/06/26 11:11:43;;;;;;;2.00;2.00;;;;;;;;;;4959114;28;20569;-88
2022/06/26 11:14:12;;;;;;;1.63;1.53;;;;;;;;;;4989636;28;20965;-89
2022/06/26 11:16:42;;;;;;;1.80;1.80;;;;;;;;;;4959668;28;20534;-88
2022/06/26 11:19:21;;;;;;;2.27;2.20;;;;;;;;;;4976601;28;20952;-89
2022/06/26 11:22:04;;;;;;;4.50;1.97;;;;;;;;;;4972775;28;20466;-89
2022/06/26 11:24:30;;;;;;;2.00;2.00;;;;;;;;;;4950529;28;21015;-88
2022/06/26 11:26:57;;;;;;;1.70;1.60;;;;;;;;;;4974854;28;20535;-89
2022/06/26 11:29:26;;;;;;;1.80;1.80;;;;;;;;;;4956614;28;20516;-87
2022/06/26 11:31:53;;;;;;;1.80;1.70;;;;;;;;;;4979104;28;20460;-88
2022/06/26 11:34:23;;;;;;;1.20;1.20;;;;;;;;;;4956740;28;20824;-87
2022/06/26 11:37:05;;;;;;;1.57;1.50;;;;;;;;;;4958250;28;20442;-87
2022/06/26 11:39:38;;;;;;;1.60;1.60;;;;;;;;;;4949349;29;20914;-88
2022/06/26 11:42:18;;;;;;;1.63;1.63;;;;;;;;;;4968352;28;20438;-90
2022/06/26 11:44:50;;;;;;;1.67;1.67;;;;;;;;;;4955889;29;20414;-89
2022/06/26 11:47:36;;;;;;;2.00;1.83;;;;;;;;;;4969324;28;20538;-88
2022/06/26 11:50:03;;;;;;;1.90;1.90;;;;;;;;;;4957199;29;20429;-88
2022/06/26 11:52:32;;;;;;;1.67;1.67;;;;;;;;;;4974157;28;20497;-88
2022/06/26 11:55:10;;;;;;;3.40;3.30;;;;;;;;;;4957498;28;20430;-88
2022/06/26 12:00:49;;;;;;;2.63;2.50;;;;;;;;;;4958735;29;20454;-90
2022/06/26 12:03:28;;;;;;;1.83;1.83;;;;;;;;;;4957569;29;20433;-86
2022/06/26 12:05:54;;;;;;;1.67;1.60;;;;;;;;;;4954501;29;20461;-88
2022/06/26 12:08:20;;;;;;;2.07;2.07;;;;;;;;;;4971592;28;21179;-89
2022/06/26 12:10:48;;;;;;;1.80;1.77;;;;;;;;;;4962140;28;20520;-90
2022/06/26 12:13:21;;;;;;;2.73;1.93;;;;;;;;;;4962316;28;20437;-90
2022/06/26 12:18:47;;;;;;;;;;;;;;;;;;;;;
2022/06/26 12:21:36;;;;;;;1.90;1.90;;;;;;;;;;4988878;28;21047;-91
2022/06/26 12:24:25;;;;;;;2.20;2.20;;;;;;;;;;4974332;28;20770;-89
2022/06/26 12:29:25;;;;;;;2.83;2.73;;;;;;;;;;4976755;28;21257;-89
2022/06/26 12:32:16;;;;;;;2.60;2.40;;;;;;;;;;4982059;28;20476;-88
2022/06/26 12:38:04;;;;;;;2.70;2.70;;;;;;;;;;5578163;23;20937;-90
2022/06/26 12:43:53;;;;;;;2.50;2.40;;;;;;;;;;4985761;28;20452;-90
2022/06/26 12:46:27;;;;;;;2.23;2.13;;;;;;;;;;4974227;23;20567;-89
2022/06/26 12:54:18;;;;;;;;;;;;;;;;;;;;;
2022/06/26 12:57:04;;;;;;;2.40;2.40;;;;;;;;;;5036597;28;20827;-88
2022/06/26 12:59:31;;;;;;;2.20;2.20;;;;;;;;;;5026807;28;20431;-88
2022/06/26 13:02:00;;;;;;;2.93;2.83;;;;;;;;;;5032822;28;20632;-88
2022/06/26 13:04:47;;;;;;;2.60;2.50;;;;;;;;;;5046712;28;20461;-89
2022/06/26 13:07:44;;;;;;;2.47;2.47;;;;;;;;;;5031521;28;20426;-89
2022/06/26 13:10:44;;;;;;;2.13;2.03;;;;;;;;;;5032907;28;20459;-91
2022/06/26 13:13:22;;;;;;;2.17;2.10;;;;;;;;;;5022003;28;20434;-89
2022/06/26 13:15:48;;;;;;;2.83;2.17;;;;;;;;;;5011087;28;20497;-87
2022/06/26 13:18:23;;;;;;;2.30;2.20;;;;;;;;;;5032256;28;20434;-89
2022/06/26 13:21:27;;;;;;;2.67;2.57;;;;;;;;;;5033503;28;20512;-91
2022/06/26 13:24:15;;;;;;;3.13;2.80;;;;;;;;;;4998555;28;20693;-90
2022/06/26 13:26:57;;;;;;;;;;;;;;;;;;;;;
2022/06/26 14:00:40;;;;;;;2.60;2.40;;;;;;;;;;2881214;22;10001518;-90
2022/06/26 14:03:12;;;;;;;5.00;2.27;;;;;;;;;;4995062;28;20247;-90
2022/06/26 14:05:58;;;;;;;2.20;2.20;;;;;;;;;;4995108;28;20470;-90
2022/06/26 14:28:17;;;;;;;2.60;2.60;;;;;;;;;;3262758;26;20501;-90
2022/06/26 14:30:48;;;;;;;3.13;2.87;;;;;;;;;;4955802;29;20546;-94
2022/06/26 14:59:49;;;;;;;2.60;2.50;;;;;;;;;;4887223;23;20488;-91
2022/06/26 15:02:15;;;;;;;2.97;2.80;;;;;;;;;;4980415;28;20425;-92
2022/06/26 15:04:41;;;;;;;2.47;2.47;;;;;;;;;;4967616;28;20450;-93
2022/06/26 15:07:47;;;;;;;;;;;;;;;;;;;;;
2022/06/26 15:10:17;;;;;;;2.27;2.27;;;;;;;;;;4955914;28;20532;-92
2022/06/26 15:12:47;;;;;;;3.03;2.93;;;;;;;;;;4956839;28;20493;-89
2022/06/26 15:15:21;;;;;;;4.07;3.93;;;;;;;;;;4992796;28;20509;-91
2022/06/26 15:17:59;;;;;;;7.83;6.07;;;;;;;;;;5001755;28;20435;-89
2022/06/26 15:20:26;;;;;;;4.17;3.97;;;;;;;;;;4964829;28;20454;-88
2022/06/26 15:22:59;;;;;;;3.10;3.00;;;;;;;;;;4984273;28;20453;-90
2022/06/26 15:25:26;;;;;;;3.53;3.43;;;;;;;;;;4952537;29;20443;-90
2022/06/26 15:27:52;;;;;;;4.57;4.20;;;;;;;;;;4989397;28;20421;-90
2022/06/26 15:30:18;;;;;;;8.00;3.77;;;;;;;;;;4967035;28;20449;-89
2022/06/26 15:32:44;;;;;;;3.77;3.27;;;;;;;;;;4982586;28;20536;-90
2022/06/26 15:35:13;;;;;;;4.00;3.87;;;;;;;;;;4969405;28;20444;-89
2022/06/26 15:37:39;;;;;;;9.00;8.27;;;;;;;;;;4983018;28;20425;-90
2022/06/26 15:40:14;;;;;;;18.20;12.60;;;;;;;;;;4967312;28;20450;-92
2022/06/26 15:42:41;;;;;;;5.17;4.83;;;;;;;;;;4966551;29;20920;-89
2022/06/26 15:45:07;;;;;;;4.53;4.10;;;;;;;;;;4983216;28;20441;-90
2022/06/26 15:48:06;;;;;;;3.13;3.03;;;;;;;;;;4992449;28;20525;-91
2022/06/26 15:50:41;;;;;;;3.23;3.20;;;;;;;;;;4952090;28;20995;-90
2022/06/26 15:53:35;;;;;;;4.40;4.30;;;;;;;;;;4947940;29;20446;-89
2022/06/26 15:56:02;;;;;;;3.03;2.93;;;;;;;;;;4962126;29;20463;-90
2022/06/26 15:58:29;;;;;;;2.70;2.60;;;;;;;;;;4954136;28;20454;-91
2022/06/26 16:00:55;;;;;;;3.60;3.10;;;;;;;;;;4979025;28;20465;-91
2022/06/26 16:03:21;;;;;;;2.80;2.70;;;;;;;;;;4980091;28;20443;-88
2022/06/26 16:05:52;;;;;;;2.77;2.67;;;;;;;;;;4974760;28;20562;-90
2022/06/26 16:08:18;;;;;;;2.93;2.83;;;;;;;;;;4965734;28;20815;-91
2022/06/26 16:10:45;;;;;;;4.60;4.13;;;;;;;;;;4976762;28;20983;-91
2022/06/26 16:13:11;;;;;;;3.40;3.40;;;;;;;;;;4972789;28;20466;-90
2022/06/26 16:15:37;;;;;;;3.20;3.00;;;;;;;;;;4958505;28;20514;-89
2022/06/26 16:18:04;;;;;;;2.50;2.50;;;;;;;;;;4984724;28;20505;-91
2022/06/26 16:20:30;;;;;;;4.07;3.87;;;;;;;;;;4964073;28;20430;-89
2022/06/26 16:28:33;;;;;;;3.40;3.40;;;;;;;;;;4948945;28;20496;-91
2022/06/26 16:31:02;;;;;;;3.30;3.30;;;;;;;;;;4985944;28;20450;-92
2022/06/26 16:33:28;;;;;;;2.90;2.90;;;;;;;;;;4981801;28;20453;-91
2022/06/26 16:35:57;;;;;;;3.93;3.93;;;;;;;;;;4969015;28;20525;-91
2022/06/26 16:38:26;;;;;;;3.30;3.07;;;;;;;;;;4982798;28;20515;-92
2022/06/26 16:41:02;;;;;;;3.30;3.03;;;;;;;;;;4981555;28;20556;-90
2022/06/26 16:43:31;;;;;;;3.57;3.40;;;;;;;;;;4970700;29;20414;-92
2022/06/26 16:46:44;;;;;;;3.40;3.30;;;;;;;;;;4951005;29;20419;-90
2022/06/26 16:52:08;;;;;;;3.63;3.20;;;;;;;;;;4976548;28;20564;-92
2022/06/26 16:54:43;;;;;;;3.30;3.30;;;;;;;;;;4987788;28;20421;-92
2022/06/26 16:57:32;;;;;;;6.10;5.70;;;;;;;;;;4620484;28;10000604;-91
2022/06/26 17:00:06;;;;;;;3.77;3.67;;;;;;;;;;4968523;28;20466;-90